Lostock Dam Site, New South Wales

2:21 PM AEST on July 25, 2016 (GMT +1000)
Mount Rivers | | Change Station

Elev 427 ft 32.36 °S, 151.50 °E | Updated 6 seconds ago

Clear
Clear
61.3 °F
Feels Like 61.3 °F
N
10.3
Wind Variable Wind from WNW
Gusts 15.0 mph

Today
High -- | Low -- °F
--% Chance of Precip.
Yesterday
High -- | Low -- °F
Precip. -- in
Pressure 29.89 in
Visibility -9999.0 miles
Clouds
Dew Point 20 °F
Humidity 20%
Rainfall 0.00 in
Snow Depth Not available.
6:48 AM 5:13 PM
Waning Gibbous, 70% visible
SPECI YWLM 250400Z 29023G37KT CAVOK 17/01 Q1012 FM0400 30025G36KT 9999 FEW045 FM0400 MOD/SEV TURB BLW 5000FT
Pressure 29.89 in
Visibility -9999.0 miles
Clouds
Dew Point 20 °F
Humidity 20%
Rainfall 0.00 in
Snow Depth Not available.
6:48 AM 5:13 PM
Waning Gibbous, 70% visible
SPECI YWLM 250400Z 29023G37KT CAVOK 17/01 Q1012 FM0400 30025G36KT 9999 FEW045 FM0400 MOD/SEV TURB BLW 5000FT

10-Day Weather Forecast

Almanac

Astronomy

Jul. 25, 2016 Rise Set
Actual Time
Civil Twilight
Nautical Twilight
Astronomical Twilight
Moon
Length of Visible Light
Length of Day
Tomorrow will be .
, % of the Moon is Illuminated

Today's Extremes

Country Highs Country Lows

Community

WunderPhotos

Upload Photos

1,927,264 photos uploaded!

WunderBlog® & News

Nearby

Air Quality

  Air Quality AQ Index Pollutant
Not available.

Snow Depth

Station Depth Elevation

Earthquake Activity

City Distance Mag. Time & Date
Minimum magnitude displayed is 2.5.

Coastal Water Temperatures

Place Temperature

Stations

Nearby Weather Stations

Station Location Temp. Windchill Dew Point Humidity Wind Precip. Elev Updated Type